Time;durP1;ratioP1;P1;durP2;ratioP2;P2;SDS_P1;SDS_P2;PMS_P1;PMS_P2;Temp;Humidity;BMP_temperature;BMP_pressure;BME280_temperature;BME280_humidity;BME280_pressure;Samples;Min_cycle;Max_cycle;Signal;HPM_P1;HPM_P2
2021/12/04 00:00:23;;;;;;;50.50;19.17;;;;;;;;;;5033598;28;20021;-41
2021/12/04 00:02:49;;;;;;;40.30;16.90;;;;;;;;;;5025041;28;20021;-41
2021/12/04 00:05:14;;;;;;;39.10;16.20;;;;;;;;;;5033200;28;20029;-41
2021/12/04 00:07:40;;;;;;;52.50;19.75;;;;;;;;;;5033471;28;20120;-42
2021/12/04 00:10:06;;;;;;;75.05;21.50;;;;;;;;;;5032162;28;20013;-41
2021/12/04 00:12:32;;;;;;;48.83;20.15;;;;;;;;;;5032883;28;20025;-43
2021/12/04 00:14:58;;;;;;;47.72;16.83;;;;;;;;;;5032809;28;20461;-42
2021/12/04 00:17:24;;;;;;;62.47;20.88;;;;;;;;;;5033241;28;20018;-42
2021/12/04 00:19:49;;;;;;;67.78;21.95;;;;;;;;;;5032998;28;20476;-42
2021/12/04 00:22:15;;;;;;;74.25;25.40;;;;;;;;;;5033306;28;20104;-42
2021/12/04 00:24:40;;;;;;;67.95;23.20;;;;;;;;;;5032562;28;20068;-40
2021/12/04 00:27:06;;;;;;;73.13;24.67;;;;;;;;;;5032689;28;20053;-41
2021/12/04 00:29:31;;;;;;;81.78;26.55;;;;;;;;;;5033212;28;20021;-40
2021/12/04 00:32:04;;;;;;;77.75;25.77;;;;;;;;;;5032969;28;20092;-42
2021/12/04 00:34:31;;;;;;;74.00;24.50;;;;;;;;;;5032386;28;20018;-41
2021/12/04 00:37:12;;;;;;;78.80;24.13;;;;;;;;;;5031598;28;20029;-43
2021/12/04 00:50:34;;;;;;;85.95;33.72;;;;;;;;;;5053004;28;20028;-42
2021/12/04 00:53:00;;;;;;;92.18;31.23;;;;;;;;;;5052318;28;20013;-44
2021/12/04 00:55:25;;;;;;;72.50;28.63;;;;;;;;;;5048157;28;20013;-40
2021/12/04 00:57:50;;;;;;;67.85;23.40;;;;;;;;;;5030658;28;20084;-41
2021/12/04 01:00:16;;;;;;;63.55;23.38;;;;;;;;;;5050825;28;20029;-42
2021/12/04 01:02:42;;;;;;;66.70;24.05;;;;;;;;;;5050702;28;20035;-40
2021/12/04 01:05:07;;;;;;;51.20;18.50;;;;;;;;;;5051679;28;20031;-41
2021/12/04 01:07:34;;;;;;;45.72;17.63;;;;;;;;;;5052282;28;20104;-40
2021/12/04 01:10:00;;;;;;;43.50;17.75;;;;;;;;;;5052216;28;20109;-41
2021/12/04 01:12:26;;;;;;;44.95;19.67;;;;;;;;;;5050762;28;20548;-40
2021/12/04 01:14:51;;;;;;;42.05;17.05;;;;;;;;;;5051568;28;20021;-40
2021/12/04 01:17:17;;;;;;;45.58;16.95;;;;;;;;;;5052287;28;20460;-41
2021/12/04 01:19:42;;;;;;;42.00;17.15;;;;;;;;;;5052214;28;20032;-44
2021/12/04 01:22:07;;;;;;;48.72;18.48;;;;;;;;;;5052473;28;20318;-43
2021/12/04 01:24:33;;;;;;;51.95;19.55;;;;;;;;;;5050433;28;20021;-41
2021/12/04 01:26:58;;;;;;;37.65;17.10;;;;;;;;;;5052354;28;20075;-41
2021/12/04 01:29:24;;;;;;;43.10;16.95;;;;;;;;;;5052059;28;20028;-41
2021/12/04 01:31:49;;;;;;;38.72;16.58;;;;;;;;;;5051802;28;20078;-40
2021/12/04 01:34:15;;;;;;;43.42;17.60;;;;;;;;;;5038287;28;20046;-41
2021/12/04 01:36:40;;;;;;;44.88;16.70;;;;;;;;;;5047233;28;20372;-42
2021/12/04 01:39:07;;;;;;;38.33;15.88;;;;;;;;;;5052062;28;20399;-40
2021/12/04 01:41:33;;;;;;;41.97;16.92;;;;;;;;;;5051938;28;20036;-41
2021/12/04 01:43:59;;;;;;;41.40;16.35;;;;;;;;;;5051270;28;20044;-41
2021/12/04 01:46:25;;;;;;;38.28;16.27;;;;;;;;;;5051650;28;20075;-41
2021/12/04 01:48:50;;;;;;;38.35;15.95;;;;;;;;;;5050704;28;20140;-41
2021/12/04 01:51:16;;;;;;;38.80;16.33;;;;;;;;;;5050580;28;20464;-41
2021/12/04 01:53:41;;;;;;;36.80;15.23;;;;;;;;;;5050191;28;20108;-41
2021/12/04 01:56:06;;;;;;;37.70;14.25;;;;;;;;;;5030470;28;20056;-44
2021/12/04 01:58:32;;;;;;;39.17;15.55;;;;;;;;;;5049577;28;20065;-40
2021/12/04 02:00:57;;;;;;;37.08;15.68;;;;;;;;;;5050373;28;20478;-41
2021/12/04 02:03:23;;;;;;;40.95;15.63;;;;;;;;;;5051018;28;20033;-41
2021/12/04 02:05:48;;;;;;;39.80;15.57;;;;;;;;;;5050562;28;20071;-41
2021/12/04 02:08:19;;;;;;;34.95;14.63;;;;;;;;;;5053577;28;20021;-41
2021/12/04 02:10:45;;;;;;;43.15;15.60;;;;;;;;;;5054133;28;20029;-41
2021/12/04 02:13:11;;;;;;;39.22;15.05;;;;;;;;;;5053728;28;20020;-41
2021/12/04 02:15:36;;;;;;;34.70;15.93;;;;;;;;;;5053379;28;20025;-42
2021/12/04 02:18:03;;;;;;;37.00;16.42;;;;;;;;;;5053608;28;20037;-42
2021/12/04 02:20:32;;;;;;;44.08;17.05;;;;;;;;;;5052719;28;20021;-43
2021/12/04 02:22:58;;;;;;;35.03;14.98;;;;;;;;;;5052150;28;20024;-42
2021/12/04 02:25:24;;;;;;;40.40;17.88;;;;;;;;;;5053524;28;20059;-43
2021/12/04 02:27:50;;;;;;;38.17;16.63;;;;;;;;;;5053643;28;20456;-41
2021/12/04 02:30:17;;;;;;;41.38;16.85;;;;;;;;;;5052740;28;20090;-41
2021/12/04 02:32:43;;;;;;;40.15;17.23;;;;;;;;;;5052969;28;20060;-41
2021/12/04 02:35:09;;;;;;;36.03;15.80;;;;;;;;;;5033693;28;20107;-41
2021/12/04 02:37:35;;;;;;;40.58;17.10;;;;;;;;;;5035142;28;20022;-42
2021/12/04 02:40:01;;;;;;;44.58;16.98;;;;;;;;;;5035047;28;20079;-40
2021/12/04 02:42:29;;;;;;;43.83;17.95;;;;;;;;;;5034653;28;20017;-42
2021/12/04 02:44:55;;;;;;;38.60;16.40;;;;;;;;;;5053652;28;20023;-40
2021/12/04 02:47:20;;;;;;;41.47;16.73;;;;;;;;;;5054729;28;20031;-40
2021/12/04 02:49:46;;;;;;;43.42;17.73;;;;;;;;;;5054877;28;20075;-42
2021/12/04 02:52:12;;;;;;;40.72;16.90;;;;;;;;;;5054594;28;20029;-41
2021/12/04 02:54:37;;;;;;;34.70;16.88;;;;;;;;;;5038639;28;20029;-40
2021/12/04 02:57:04;;;;;;;38.15;17.17;;;;;;;;;;5054683;28;20055;-41
2021/12/04 02:59:31;;;;;;;37.83;16.48;;;;;;;;;;5052970;28;20399;-42
2021/12/04 03:01:57;;;;;;;46.40;19.02;;;;;;;;;;5054618;28;20021;-40
2021/12/04 03:04:24;;;;;;;42.50;18.08;;;;;;;;;;5054274;28;20032;-44
2021/12/04 03:06:50;;;;;;;40.50;18.20;;;;;;;;;;5054642;28;20430;-41
2021/12/04 03:09:15;;;;;;;51.03;20.17;;;;;;;;;;5054421;28;20056;-41
2021/12/04 03:11:41;;;;;;;47.15;20.38;;;;;;;;;;5054684;28;20479;-40
2021/12/04 03:14:07;;;;;;;56.17;21.70;;;;;;;;;;5054053;28;20108;-41
2021/12/04 03:16:33;;;;;;;52.90;21.35;;;;;;;;;;5054070;28;20104;-41
2021/12/04 03:18:59;;;;;;;55.60;22.58;;;;;;;;;;5053617;28;20041;-41
2021/12/04 03:21:25;;;;;;;48.38;21.15;;;;;;;;;;5054289;28;20021;-42
2021/12/04 03:24:00;;;;;;;52.13;20.67;;;;;;;;;;5054073;28;20025;-40
2021/12/04 03:26:25;;;;;;;52.38;20.77;;;;;;;;;;5053990;28;20017;-40
2021/12/04 03:28:52;;;;;;;50.92;20.88;;;;;;;;;;5053794;28;20032;-41
2021/12/04 03:31:45;;;;;;;45.63;20.30;;;;;;;;;;5052624;28;20045;-40
2021/12/04 03:42:17;;;;;;;45.72;19.73;;;;;;;;;;5053838;28;20035;-40
2021/12/04 03:44:42;;;;;;;51.67;20.23;;;;;;;;;;5053714;28;20104;-40
2021/12/04 03:47:09;;;;;;;57.85;19.25;;;;;;;;;;5053636;28;20017;-40
2021/12/04 03:49:34;;;;;;;41.13;18.88;;;;;;;;;;5053621;28;20028;-41
2021/12/04 03:52:00;;;;;;;50.90;21.75;;;;;;;;;;5041885;28;20022;-40
2021/12/04 03:54:25;;;;;;;49.83;20.58;;;;;;;;;;5040907;28;20029;-42
2021/12/04 03:57:00;;;;;;;47.95;20.15;;;;;;;;;;5053330;28;20052;-40
2021/12/04 03:59:26;;;;;;;50.13;21.23;;;;;;;;;;5053514;28;20460;-44
2021/12/04 04:01:51;;;;;;;49.50;20.40;;;;;;;;;;5052087;28;20075;-40
2021/12/04 04:04:16;;;;;;;48.50;21.23;;;;;;;;;;5053023;28;20021;-41
2021/12/04 04:06:42;;;;;;;53.55;21.85;;;;;;;;;;5053393;28;20482;-41
2021/12/04 04:09:07;;;;;;;51.50;20.20;;;;;;;;;;5033602;28;20052;-43
2021/12/04 04:11:36;;;;;;;51.95;21.65;;;;;;;;;;5033590;28;20399;-40
2021/12/04 04:14:01;;;;;;;46.03;20.38;;;;;;;;;;5033254;28;20017;-45
2021/12/04 04:16:26;;;;;;;52.97;21.70;;;;;;;;;;5031956;28;20479;-40
2021/12/04 04:18:52;;;;;;;55.35;22.08;;;;;;;;;;5032981;28;20131;-42
2021/12/04 04:21:17;;;;;;;50.88;21.38;;;;;;;;;;5033115;28;20475;-40
2021/12/04 04:23:42;;;;;;;51.53;23.02;;;;;;;;;;5046317;28;20028;-40
2021/12/04 04:26:08;;;;;;;60.17;21.95;;;;;;;;;;5033113;28;20029;-40
2021/12/04 04:28:33;;;;;;;52.83;22.27;;;;;;;;;;5033072;28;20021;-41
2021/12/04 04:30:59;;;;;;;52.08;21.58;;;;;;;;;;5032992;28;20028;-40
2021/12/04 04:33:24;;;;;;;59.55;22.55;;;;;;;;;;5034299;28;20028;-40
2021/12/04 04:36:05;;;;;;;47.47;19.52;;;;;;;;;;5041162;28;20025;-41
2021/12/04 04:38:43;;;;;;;48.75;21.17;;;;;;;;;;5052860;28;20112;-40
2021/12/04 04:57:59;;;;;;;44.65;18.00;;;;;;;;;;5032721;28;20140;-40
2021/12/04 05:11:21;;;;;;;47.13;19.05;;;;;;;;;;5032183;28;20032;-45
2021/12/04 05:13:46;;;;;;;40.92;17.75;;;;;;;;;;5032127;28;20449;-41
2021/12/04 05:18:40;;;;;;;51.38;20.88;;;;;;;;;;5032431;28;20041;-44
2021/12/04 05:21:06;;;;;;;47.40;22.17;;;;;;;;;;5032181;28;20069;-43
2021/12/04 05:23:33;;;;;;;54.65;23.38;;;;;;;;;;5031888;28;20025;-42
2021/12/04 05:25:59;;;;;;;57.10;24.15;;;;;;;;;;5032051;28;20026;-40
2021/12/04 05:28:26;;;;;;;58.42;24.15;;;;;;;;;;5032378;28;20084;-40
2021/12/04 05:30:51;;;;;;;63.25;25.88;;;;;;;;;;5032558;28;20029;-40
2021/12/04 05:33:16;;;;;;;57.47;22.90;;;;;;;;;;5036885;28;20124;-41
2021/12/04 05:35:42;;;;;;;61.30;26.02;;;;;;;;;;5037599;28;20036;-40
2021/12/04 05:38:07;;;;;;;66.82;26.50;;;;;;;;;;5030754;28;20465;-41
2021/12/04 05:40:32;;;;;;;63.35;26.88;;;;;;;;;;5030571;28;20056;-42
2021/12/04 05:43:03;;;;;;;86.55;33.10;;;;;;;;;;5033852;28;20026;-40
2021/12/04 05:45:34;;;;;;;84.47;31.80;;;;;;;;;;5036261;28;20400;-40
2021/12/04 05:48:07;;;;;;;78.22;29.42;;;;;;;;;;5036316;28;20018;-41
2021/12/04 05:55:26;;;;;;;78.13;29.75;;;;;;;;;;5035758;28;20097;-41
2021/12/04 05:57:52;;;;;;;72.85;29.15;;;;;;;;;;5035897;28;20054;-40
2021/12/04 06:00:19;;;;;;;68.97;27.65;;;;;;;;;;5036173;28;20036;-40
2021/12/04 06:02:45;;;;;;;71.63;27.52;;;;;;;;;;5035558;28;20036;-40
2021/12/04 06:05:11;;;;;;;64.78;28.23;;;;;;;;;;5035610;28;20021;-40
2021/12/04 06:07:36;;;;;;;67.20;26.95;;;;;;;;;;5035761;28;20022;-42
2021/12/04 06:10:02;;;;;;;67.65;27.70;;;;;;;;;;5035407;28;20522;-40
2021/12/04 06:12:28;;;;;;;57.78;24.77;;;;;;;;;;5034171;28;20063;-41
2021/12/04 06:14:53;;;;;;;50.42;22.13;;;;;;;;;;5035294;28;20087;-41
2021/12/04 06:17:19;;;;;;;60.63;25.08;;;;;;;;;;5035584;28;20028;-40
2021/12/04 06:22:38;;;;;;;61.40;26.73;;;;;;;;;;5035127;28;20036;-40
2021/12/04 06:25:12;;;;;;;67.05;26.83;;;;;;;;;;5035445;28;20063;-41
2021/12/04 06:27:37;;;;;;;62.65;25.90;;;;;;;;;;5035267;28;20472;-40
2021/12/04 06:30:07;;;;;;;63.88;27.05;;;;;;;;;;5035143;28;20028;-40
2021/12/04 06:32:35;;;;;;;66.43;26.50;;;;;;;;;;5044092;28;20107;-40
2021/12/04 06:35:01;;;;;;;69.57;26.52;;;;;;;;;;5033443;28;20361;-40
2021/12/04 06:37:26;;;;;;;64.90;27.17;;;;;;;;;;5034200;28;20036;-41
2021/12/04 06:39:52;;;;;;;56.20;25.15;;;;;;;;;;5034938;28;20120;-40
2021/12/04 06:42:17;;;;;;;63.45;26.10;;;;;;;;;;5034852;28;20491;-41
2021/12/04 06:44:42;;;;;;;63.00;26.33;;;;;;;;;;5034894;28;20025;-40
2021/12/04 06:47:08;;;;;;;63.10;27.02;;;;;;;;;;5034868;28;20021;-40
2021/12/04 06:49:37;;;;;;;61.20;25.95;;;;;;;;;;5038974;28;20028;-40
2021/12/04 06:52:06;;;;;;;66.55;26.45;;;;;;;;;;5054918;28;20031;-41
2021/12/04 06:54:38;;;;;;;70.70;28.02;;;;;;;;;;5053441;28;20029;-41
2021/12/04 06:57:07;;;;;;;71.47;27.92;;;;;;;;;;5054718;28;20102;-41
2021/12/04 06:59:33;;;;;;;61.38;26.73;;;;;;;;;;5054526;28;20047;-40
2021/12/04 07:01:59;;;;;;;62.40;26.42;;;;;;;;;;5054429;28;20025;-43
2021/12/04 07:04:31;;;;;;;61.80;27.40;;;;;;;;;;5054029;28;20032;-42
2021/12/04 07:06:56;;;;;;;74.90;28.73;;;;;;;;;;5054524;28;20598;-43
2021/12/04 07:09:21;;;;;;;81.72;31.02;;;;;;;;;;5054603;28;20096;-44
2021/12/04 07:11:47;;;;;;;82.15;35.08;;;;;;;;;;5054441;28;20487;-40
2021/12/04 07:14:12;;;;;;;83.35;32.80;;;;;;;;;;5054064;28;20028;-39
2021/12/04 07:16:38;;;;;;;94.22;37.00;;;;;;;;;;5054297;28;20102;-40
2021/12/04 07:19:03;;;;;;;87.85;35.42;;;;;;;;;;5053907;28;20043;-39
2021/12/04 07:21:28;;;;;;;83.60;32.85;;;;;;;;;;5054433;28;20016;-41
2021/12/04 07:23:54;;;;;;;69.05;29.20;;;;;;;;;;5053811;28;20021;-40
2021/12/04 07:26:19;;;;;;;86.65;36.65;;;;;;;;;;5054134;28;20017;-39
2021/12/04 07:28:45;;;;;;;92.78;36.20;;;;;;;;;;5054502;28;20028;-40
2021/12/04 07:31:10;;;;;;;80.07;34.20;;;;;;;;;;5045148;28;20064;-42
2021/12/04 07:33:36;;;;;;;89.60;35.75;;;;;;;;;;5037142;28;20472;-39
2021/12/04 07:36:02;;;;;;;86.45;39.05;;;;;;;;;;5038798;28;20076;-40
2021/12/04 07:38:27;;;;;;;100.45;44.80;;;;;;;;;;5034069;28;20032;-40
2021/12/04 07:40:53;;;;;;;90.30;42.20;;;;;;;;;;5033871;28;20026;-39
2021/12/04 07:43:18;;;;;;;105.68;45.47;;;;;;;;;;5033694;28;20089;-40
2021/12/04 07:45:43;;;;;;;84.55;40.10;;;;;;;;;;5031514;28;20017;-41
2021/12/04 07:48:09;;;;;;;92.22;38.42;;;;;;;;;;5038929;28;20464;-41
2021/12/04 07:50:34;;;;;;;82.40;37.03;;;;;;;;;;5053560;28;20024;-40
2021/12/04 07:53:00;;;;;;;93.00;41.50;;;;;;;;;;5050960;28;20476;-40
2021/12/04 07:55:26;;;;;;;77.75;38.20;;;;;;;;;;5053593;28;20021;-39
2021/12/04 07:57:51;;;;;;;84.00;39.88;;;;;;;;;;5053316;28;20068;-40
2021/12/04 08:00:18;;;;;;;73.25;38.58;;;;;;;;;;5054053;28;20104;-40
2021/12/04 08:02:43;;;;;;;92.53;41.10;;;;;;;;;;5051610;28;20528;-43
2021/12/04 08:05:09;;;;;;;83.03;37.75;;;;;;;;;;5053252;28;20024;-40
2021/12/04 08:07:35;;;;;;;71.35;34.20;;;;;;;;;;5048766;28;20052;-40
2021/12/04 08:10:01;;;;;;;76.65;34.40;;;;;;;;;;5033631;28;20048;-40
2021/12/04 08:12:26;;;;;;;62.55;31.73;;;;;;;;;;5033098;28;20453;-42
2021/12/04 08:14:53;;;;;;;67.13;28.58;;;;;;;;;;5032004;28;20018;-39
2021/12/04 08:17:19;;;;;;;42.60;23.08;;;;;;;;;;5032952;28;20104;-41
2021/12/04 08:19:44;;;;;;;42.05;21.83;;;;;;;;;;5033279;28;20037;-39
2021/12/04 08:22:10;;;;;;;41.33;21.08;;;;;;;;;;5033167;28;20064;-40
2021/12/04 08:24:35;;;;;;;35.75;18.98;;;;;;;;;;5032959;28;20447;-39
2021/12/04 08:27:02;;;;;;;38.72;19.08;;;;;;;;;;5033526;28;20025;-41
2021/12/04 08:29:28;;;;;;;44.85;22.67;;;;;;;;;;5033030;28;20021;-40
2021/12/04 08:31:53;;;;;;;51.72;24.98;;;;;;;;;;5032835;28;20376;-40
2021/12/04 08:34:18;;;;;;;47.67;24.13;;;;;;;;;;5032432;28;20021;-39
2021/12/04 08:36:44;;;;;;;49.00;23.15;;;;;;;;;;5033096;28;20021;-39
2021/12/04 08:39:09;;;;;;;41.10;21.65;;;;;;;;;;5032980;28;20026;-40
2021/12/04 08:41:35;;;;;;;42.78;22.77;;;;;;;;;;5031447;28;20013;-39
2021/12/04 08:44:00;;;;;;;45.50;22.60;;;;;;;;;;5032418;28;20365;-39
2021/12/04 08:46:26;;;;;;;50.22;22.58;;;;;;;;;;5034439;28;20018;-39
2021/12/04 08:48:54;;;;;;;39.83;20.30;;;;;;;;;;5032595;28;20574;-39
2021/12/04 08:51:21;;;;;;;44.90;18.40;;;;;;;;;;5032850;28;20018;-40
2021/12/04 08:53:47;;;;;;;32.67;17.70;;;;;;;;;;5032449;28;20021;-40
2021/12/04 08:56:13;;;;;;;35.47;18.25;;;;;;;;;;5032400;28;20026;-40
2021/12/04 08:58:40;;;;;;;34.47;17.77;;;;;;;;;;5032319;28;20032;-40
2021/12/04 09:01:08;;;;;;;37.05;19.92;;;;;;;;;;5032508;28;20423;-40
2021/12/04 09:03:35;;;;;;;43.42;18.98;;;;;;;;;;5031827;28;20381;-40
2021/12/04 09:06:02;;;;;;;33.97;19.65;;;;;;;;;;5032520;28;20076;-40
2021/12/04 09:08:28;;;;;;;42.97;18.70;;;;;;;;;;5032386;28;20417;-39
2021/12/04 09:10:55;;;;;;;39.53;19.52;;;;;;;;;;5032445;28;20031;-40
2021/12/04 09:13:21;;;;;;;34.85;17.35;;;;;;;;;;5032081;28;20032;-40
2021/12/04 09:15:47;;;;;;;40.10;17.80;;;;;;;;;;5032230;28;20025;-40
2021/12/04 09:18:12;;;;;;;32.83;17.38;;;;;;;;;;5031395;28;20103;-39
2021/12/04 09:20:38;;;;;;;45.40;20.25;;;;;;;;;;5032385;28;20010;-39
2021/12/04 09:23:07;;;;;;;32.78;17.33;;;;;;;;;;5032161;28;20017;-40
2021/12/04 09:25:33;;;;;;;39.10;18.92;;;;;;;;;;5030762;28;20108;-40
2021/12/04 09:28:21;;;;;;;35.58;18.30;;;;;;;;;;5032385;28;20022;-39
2021/12/04 10:21:19;;;;;;;24.45;12.25;;;;;;;;;;5050121;28;20025;-41
2021/12/04 10:34:47;;;;;;;29.70;13.70;;;;;;;;;;5038270;28;20087;-41
2021/12/04 10:37:17;;;;;;;36.75;14.15;;;;;;;;;;5033832;28;20100;-40
2021/12/04 10:39:43;;;;;;;23.05;12.77;;;;;;;;;;5034620;28;20045;-40
2021/12/04 10:42:15;;;;;;;30.40;12.85;;;;;;;;;;5035368;28;20009;-40
2021/12/04 10:44:44;;;;;;;28.13;14.23;;;;;;;;;;5049629;28;20108;-40
2021/12/04 10:47:15;;;;;;;30.50;16.60;;;;;;;;;;5055320;28;20028;-41
2021/12/04 10:52:18;;;;;;;30.42;13.43;;;;;;;;;;5054535;28;20078;-41
2021/12/04 10:54:43;;;;;;;21.55;11.13;;;;;;;;;;5054984;28;20031;-42
2021/12/04 11:00:06;;;;;;;23.52;12.07;;;;;;;;;;5054603;28;20086;-40
2021/12/04 11:02:41;;;;;;;27.27;12.30;;;;;;;;;;5053976;28;20071;-41
2021/12/04 11:05:42;;;;;;;26.45;12.68;;;;;;;;;;5054778;28;20047;-41
2021/12/04 11:19:59;;;;;;;25.23;12.80;;;;;;;;;;5034825;28;20118;-40
2021/12/04 11:22:58;;;;;;;27.98;12.70;;;;;;;;;;5046304;28;20033;-40
2021/12/04 11:41:27;;;;;;;21.77;10.07;;;;;;;;;;5037874;28;20104;-41
2021/12/04 11:46:27;;;;;;;18.67;9.57;;;;;;;;;;5053825;28;20018;-40
2021/12/04 11:48:53;;;;;;;21.20;8.02;;;;;;;;;;5053920;28;20527;-41
2021/12/04 11:51:23;;;;;;;17.17;8.50;;;;;;;;;;5051810;28;20095;-40
2021/12/04 11:53:49;;;;;;;17.08;8.70;;;;;;;;;;5051696;28;20021;-42
2021/12/04 11:56:18;;;;;;;14.05;8.02;;;;;;;;;;5052109;28;20035;-40
2021/12/04 11:58:45;;;;;;;18.55;8.40;;;;;;;;;;5052855;28;20036;-40
2021/12/04 12:01:32;;;;;;;19.90;8.55;;;;;;;;;;5052796;28;20025;-40
2021/12/04 12:04:00;;;;;;;19.45;10.15;;;;;;;;;;5052915;28;20103;-40
2021/12/04 12:06:31;;;;;;;27.58;12.65;;;;;;;;;;5053442;28;20027;-40
2021/12/04 12:09:00;;;;;;;26.42;11.48;;;;;;;;;;5053398;28;20028;-41
2021/12/04 12:11:27;;;;;;;24.77;12.68;;;;;;;;;;5053290;28;20101;-40
2021/12/04 12:14:14;;;;;;;24.58;11.48;;;;;;;;;;5051587;28;20029;-41
2021/12/04 12:16:45;;;;;;;22.08;11.57;;;;;;;;;;5053403;28;20025;-41
2021/12/04 12:19:22;;;;;;;25.17;11.32;;;;;;;;;;5053169;28;20043;-40
2021/12/04 12:21:53;;;;;;;25.60;12.48;;;;;;;;;;5053129;28;20024;-42
2021/12/04 12:24:52;;;;;;;21.23;10.95;;;;;;;;;;5052759;28;20086;-41
2021/12/04 12:33:01;;;;;;;21.35;10.07;;;;;;;;;;5033023;28;20044;-40
2021/12/04 12:38:33;;;;;;;26.15;10.65;;;;;;;;;;5039815;28;20036;-41
2021/12/04 12:40:58;;;;;;;23.08;10.75;;;;;;;;;;5035925;28;20128;-40
2021/12/04 12:43:32;;;;;;;20.92;9.82;;;;;;;;;;5052966;28;20472;-41
2021/12/04 12:45:58;;;;;;;20.13;10.98;;;;;;;;;;5052631;28;20032;-41
2021/12/04 12:48:23;;;;;;;25.02;12.90;;;;;;;;;;5052792;28;20130;-42
2021/12/04 12:50:49;;;;;;;32.60;15.18;;;;;;;;;;5052535;28;20105;-40
2021/12/04 12:53:26;;;;;;;29.33;13.45;;;;;;;;;;5051386;28;20119;-45
2021/12/04 12:56:02;;;;;;;29.10;13.90;;;;;;;;;;5052702;28;20100;-41
2021/12/04 12:58:31;;;;;;;31.35;12.95;;;;;;;;;;5052891;28;20151;-40
2021/12/04 13:12:06;;;;;;;26.88;13.65;;;;;;;;;;5052188;28;20047;-41
2021/12/04 13:14:36;;;;;;;27.50;14.00;;;;;;;;;;5052141;28;20021;-40
2021/12/04 13:17:13;;;;;;;27.95;12.52;;;;;;;;;;5052502;28;20476;-41
2021/12/04 13:19:40;;;;;;;28.65;13.32;;;;;;;;;;5052095;28;20141;-41
2021/12/04 13:22:13;;;;;;;22.25;11.65;;;;;;;;;;5052048;28;20025;-40
2021/12/04 13:24:39;;;;;;;30.23;14.20;;;;;;;;;;5051630;28;20032;-41
2021/12/04 13:29:38;;;;;;;29.60;13.48;;;;;;;;;;5042775;28;20056;-41
2021/12/04 13:32:05;;;;;;;32.92;14.48;;;;;;;;;;5047792;28;20023;-41
2021/12/04 13:34:31;;;;;;;32.47;13.65;;;;;;;;;;5051915;28;20101;-43
2021/12/04 13:36:58;;;;;;;20.77;11.23;;;;;;;;;;5050176;28;20056;-44
2021/12/04 13:39:24;;;;;;;26.80;13.30;;;;;;;;;;5039677;28;20129;-41
2021/12/04 13:41:50;;;;;;;30.35;11.82;;;;;;;;;;5052166;28;20044;-41
2021/12/04 13:44:17;;;;;;;25.60;13.10;;;;;;;;;;5051995;28;20047;-41
2021/12/04 13:46:50;;;;;;;25.25;12.82;;;;;;;;;;5051825;28;20460;-43
2021/12/04 13:49:20;;;;;;;35.80;15.15;;;;;;;;;;5051947;28;20021;-41
2021/12/04 13:51:56;;;;;;;35.35;15.38;;;;;;;;;;5051596;28;20021;-42
2021/12/04 13:54:22;;;;;;;27.85;13.50;;;;;;;;;;5052342;28;20496;-42
2021/12/04 13:56:48;;;;;;;30.52;15.38;;;;;;;;;;5051633;28;20052;-43
2021/12/04 13:59:14;;;;;;;36.65;17.48;;;;;;;;;;5051879;28;20025;-41
2021/12/04 14:01:44;;;;;;;44.10;18.25;;;;;;;;;;5050407;28;20021;-42
2021/12/04 14:04:16;;;;;;;33.80;15.85;;;;;;;;;;5052502;28;20028;-43
2021/12/04 14:06:53;;;;;;;31.95;15.48;;;;;;;;;;5055436;28;20060;-41
2021/12/04 14:09:18;;;;;;;38.97;16.67;;;;;;;;;;5054659;28;20021;-40
2021/12/04 14:11:45;;;;;;;38.35;16.65;;;;;;;;;;5055660;28;20055;-41
2021/12/04 14:14:21;;;;;;;45.53;19.13;;;;;;;;;;5055206;28;20052;-41
2021/12/04 14:16:50;;;;;;;36.70;16.60;;;;;;;;;;5055499;28;20357;-42
2021/12/04 14:19:20;;;;;;;37.90;17.55;;;;;;;;;;5055131;28;20024;-43
2021/12/04 14:21:59;;;;;;;38.53;18.02;;;;;;;;;;5055602;28;20021;-42
2021/12/04 14:24:30;;;;;;;39.78;17.60;;;;;;;;;;5053877;28;20380;-41
2021/12/04 14:26:57;;;;;;;30.58;15.57;;;;;;;;;;5055328;28;20020;-41
2021/12/04 14:29:25;;;;;;;37.33;17.42;;;;;;;;;;5043666;28;20052;-43
2021/12/04 14:31:51;;;;;;;37.53;16.48;;;;;;;;;;5035123;28;20420;-41
2021/12/04 14:34:20;;;;;;;40.58;18.65;;;;;;;;;;5033615;28;20026;-40
2021/12/04 14:36:46;;;;;;;39.92;18.58;;;;;;;;;;5035230;28;20025;-40
2021/12/04 14:39:11;;;;;;;37.67;19.00;;;;;;;;;;5046146;28;20151;-41
2021/12/04 14:41:36;;;;;;;38.92;18.70;;;;;;;;;;5055298;28;20017;-42
2021/12/04 14:44:03;;;;;;;43.22;19.27;;;;;;;;;;5048234;28;20032;-41
2021/12/04 14:46:29;;;;;;;37.40;19.40;;;;;;;;;;5053726;28;20025;-42
2021/12/04 14:48:54;;;;;;;46.38;20.92;;;;;;;;;;5055072;28;20062;-42
2021/12/04 14:51:21;;;;;;;37.30;19.05;;;;;;;;;;5055031;28;20468;-40
2021/12/04 14:53:50;;;;;;;42.55;19.83;;;;;;;;;;5054953;28;20380;-41
2021/12/04 14:56:16;;;;;;;42.53;18.83;;;;;;;;;;5054586;28;20041;-41
2021/12/04 14:58:42;;;;;;;47.85;19.08;;;;;;;;;;5054522;28;20036;-41
2021/12/04 15:01:10;;;;;;;46.38;21.50;;;;;;;;;;5054677;28;20024;-44
2021/12/04 15:03:43;;;;;;;51.63;21.98;;;;;;;;;;5054303;28;20100;-43
2021/12/04 15:06:12;;;;;;;66.28;24.77;;;;;;;;;;5054769;28;20120;-41
2021/12/04 15:08:42;;;;;;;53.13;21.23;;;;;;;;;;5054483;28;20056;-42
2021/12/04 15:11:07;;;;;;;37.53;18.23;;;;;;;;;;5053156;28;20021;-44
2021/12/04 15:13:35;;;;;;;39.22;17.70;;;;;;;;;;5054073;28;20013;-43
2021/12/04 15:16:03;;;;;;;35.17;17.20;;;;;;;;;;5053422;28;20056;-41
2021/12/04 15:18:37;;;;;;;27.80;15.32;;;;;;;;;;5053136;28;20037;-41
2021/12/04 15:21:04;;;;;;;29.75;14.68;;;;;;;;;;5054398;28;20484;-43
2021/12/04 15:23:31;;;;;;;30.60;14.75;;;;;;;;;;5052719;28;20017;-42
2021/12/04 15:25:59;;;;;;;29.33;14.60;;;;;;;;;;5053918;28;20391;-41
2021/12/04 15:28:25;;;;;;;30.57;13.87;;;;;;;;;;5044539;28;20022;-44
2021/12/04 15:30:53;;;;;;;31.80;14.75;;;;;;;;;;5034342;28;20029;-41
2021/12/04 15:33:24;;;;;;;41.60;17.77;;;;;;;;;;5032467;28;20025;-45
2021/12/04 15:35:51;;;;;;;31.23;14.77;;;;;;;;;;5034204;28;20035;-42
2021/12/04 15:38:23;;;;;;;28.65;14.02;;;;;;;;;;5050875;28;20013;-44
2021/12/04 15:41:03;;;;;;;43.25;18.05;;;;;;;;;;5052662;28;20465;-42
2021/12/04 15:48:56;;;;;;;51.95;21.75;;;;;;;;;;5053836;28;20040;-43
2021/12/04 15:54:10;;;;;;;63.47;24.98;;;;;;;;;;5053683;28;20059;-42
2021/12/04 15:56:43;;;;;;;69.20;26.38;;;;;;;;;;5053509;28;20060;-42
2021/12/04 15:59:12;;;;;;;75.00;27.65;;;;;;;;;;5053614;28;20079;-41
2021/12/04 16:01:37;;;;;;;47.97;21.27;;;;;;;;;;5053464;28;20017;-42
2021/12/04 16:04:02;;;;;;;64.57;24.30;;;;;;;;;;5048840;28;20442;-41
2021/12/04 16:06:40;;;;;;;51.00;20.67;;;;;;;;;;5034074;28;20017;-44
2021/12/04 16:09:06;;;;;;;48.90;20.85;;;;;;;;;;5031524;28;20112;-41
2021/12/04 16:11:39;;;;;;;60.55;22.08;;;;;;;;;;5033473;28;20176;-42
2021/12/04 16:14:06;;;;;;;58.05;23.23;;;;;;;;;;5032770;28;20025;-41
2021/12/04 16:16:33;;;;;;;81.75;29.30;;;;;;;;;;5033518;28;20105;-41
2021/12/04 16:18:59;;;;;;;54.50;20.90;;;;;;;;;;5033254;28;20036;-41
2021/12/04 16:21:25;;;;;;;66.22;26.55;;;;;;;;;;5033388;28;20013;-44
2021/12/04 16:23:53;;;;;;;55.75;23.58;;;;;;;;;;5031655;28;20029;-44
2021/12/04 16:26:22;;;;;;;65.85;28.63;;;;;;;;;;5032818;28;20029;-41
2021/12/04 16:29:02;;;;;;;69.38;25.52;;;;;;;;;;5033138;28;20064;-42
2021/12/04 16:37:33;;;;;;;60.83;22.85;;;;;;;;;;5046760;28;20152;-43
2021/12/04 16:39:59;;;;;;;50.10;21.48;;;;;;;;;;5052902;28;20091;-40
2021/12/04 16:42:25;;;;;;;47.47;19.92;;;;;;;;;;5052521;28;20021;-43
2021/12/04 16:44:50;;;;;;;36.53;17.42;;;;;;;;;;5052667;28;20372;-43
2021/12/04 16:47:15;;;;;;;44.38;20.30;;;;;;;;;;5052742;28;20059;-42
2021/12/04 16:49:41;;;;;;;36.05;17.30;;;;;;;;;;5051045;28;20487;-41
2021/12/04 16:57:58;;;;;;;35.20;15.98;;;;;;;;;;5032803;28;20054;-41
2021/12/04 17:00:18;;;;;;;41.88;19.23;;;;;;;;;;5032074;28;20046;-41
2021/12/04 17:02:43;;;;;;;33.15;16.02;;;;;;;;;;5032366;28;20026;-43
2021/12/04 17:05:09;;;;;;;33.78;15.25;;;;;;;;;;5032312;28;20021;-42
2021/12/04 17:07:35;;;;;;;34.72;16.02;;;;;;;;;;5031333;28;20385;-40
2021/12/04 17:10:00;;;;;;;40.83;17.65;;;;;;;;;;5032505;28;20020;-41
2021/12/04 17:12:26;;;;;;;37.90;16.40;;;;;;;;;;5032069;28;20491;-43
2021/12/04 17:14:53;;;;;;;42.25;17.98;;;;;;;;;;5032183;28;20033;-44
2021/12/04 17:17:25;;;;;;;36.38;16.65;;;;;;;;;;5031251;28;20029;-43
2021/12/04 17:19:51;;;;;;;40.78;18.33;;;;;;;;;;5031573;28;20041;-41
2021/12/04 17:22:16;;;;;;;42.88;17.58;;;;;;;;;;5031617;28;20091;-44
2021/12/04 17:24:42;;;;;;;40.65;16.98;;;;;;;;;;5031502;28;20510;-42
2021/12/04 17:27:09;;;;;;;41.55;18.35;;;;;;;;;;5031820;28;20404;-45
2021/12/04 17:29:34;;;;;;;29.98;14.73;;;;;;;;;;5036761;28;20391;-42
2021/12/04 17:32:00;;;;;;;31.17;14.88;;;;;;;;;;5044445;28;20018;-40
2021/12/04 17:34:25;;;;;;;33.28;15.45;;;;;;;;;;5035875;28;20029;-41